Thomson, Thomson Mcduffie County Airport (KHQU)

NameThomson Mcduffie County Airport
CityThomson
CountryUnited States
ICAOKHQU
IATA
Altitude153 m
CoordinatesGoogle Map
Live Air TrafficLiveATC.net
METARKHQU 170955Z AUTO 00000KT 10SM CLR 07/06 A2991 RMK AO2 T00740059
2019-10-17 09:55:00 Wind: North (0°) 0 m/s - Visibility: 16093.4 m - Temperature: 7 °C - Dew point: 6 °C - Humidity: 93.4% - Pressure: 1012.87 hPa
Statistics

The table below shows the detailed information of all flights to/from Thomson, Thomson Mcduffie County Airport (KHQU).